createdAt,value
2018-10-19T00:00:02.750Z,10.00
2018-10-19T00:02:31.646Z,10.00
2018-10-19T00:05:00.396Z,9.90
2018-10-19T00:07:29.083Z,9.80
2018-10-19T00:09:58.242Z,9.80
2018-10-19T00:12:27.060Z,9.80
2018-10-19T00:14:56.073Z,9.80
2018-10-19T00:17:25.233Z,9.80
2018-10-19T00:19:54.345Z,9.70
2018-10-19T00:22:23.229Z,9.70
2018-10-19T00:24:52.045Z,9.70
2018-10-19T00:27:20.944Z,9.70
2018-10-19T00:29:49.944Z,9.80
2018-10-19T00:32:19.152Z,9.80
2018-10-19T00:34:48.127Z,9.80
2018-10-19T00:37:16.860Z,9.70
2018-10-19T00:39:45.459Z,9.70
2018-10-19T00:42:14.123Z,9.60
2018-10-19T00:44:42.895Z,9.60
2018-10-19T00:47:11.939Z,9.60
2018-10-19T00:49:41.034Z,9.60
2018-10-19T00:52:10.257Z,9.50
2018-10-19T00:54:39.039Z,9.50
2018-10-19T00:57:07.872Z,9.40
2018-10-19T00:59:36.929Z,9.40
2018-10-19T01:02:05.897Z,9.30
2018-10-19T01:04:34.866Z,9.30
2018-10-19T01:07:03.974Z,9.40
2018-10-19T01:09:33.129Z,9.50
2018-10-19T01:12:02.663Z,9.50
2018-10-19T01:14:31.639Z,9.40
2018-10-19T01:17:00.508Z,9.30
2018-10-19T01:19:29.343Z,9.30
2018-10-19T01:21:58.119Z,9.40
2018-10-19T01:24:26.906Z,9.40
2018-10-19T01:26:55.792Z,9.20
2018-10-19T01:29:25.080Z,9.30
2018-10-19T01:31:53.808Z,9.20
2018-10-19T01:34:22.939Z,9.30
2018-10-19T01:36:51.640Z,9.30
2018-10-19T01:39:20.686Z,9.30
2018-10-19T01:41:49.867Z,9.20
2018-10-19T01:44:18.844Z,9.20
2018-10-19T01:46:48.461Z,9.10
2018-10-19T01:49:18.353Z,9.10
2018-10-19T01:51:47.464Z,9.10
2018-10-19T01:54:16.089Z,9.10
2018-10-19T01:56:45.036Z,9.00
2018-10-19T01:59:13.727Z,8.90
2018-10-19T02:01:43.816Z,9.00
2018-10-19T02:04:12.516Z,8.90
2018-10-19T02:06:41.359Z,8.90
2018-10-19T02:09:10.573Z,8.80
2018-10-19T02:11:39.510Z,8.80
2018-10-19T02:14:08.860Z,8.80
2018-10-19T02:16:38.158Z,8.80
2018-10-19T02:19:07.089Z,8.80
2018-10-19T02:21:35.867Z,8.80
2018-10-19T02:24:04.603Z,8.80
2018-10-19T02:26:34.069Z,8.80
2018-10-19T02:29:02.871Z,8.60
2018-10-19T02:31:31.531Z,8.70
2018-10-19T02:34:00.188Z,8.70
2018-10-19T02:36:28.869Z,8.70
2018-10-19T02:38:57.558Z,8.70
2018-10-19T02:41:26.390Z,8.70
2018-10-19T02:43:55.352Z,8.70
2018-10-19T02:46:24.148Z,8.70
2018-10-19T02:48:53.162Z,8.70
2018-10-19T02:51:22.236Z,8.70
2018-10-19T02:53:50.906Z,8.60
2018-10-19T02:56:19.779Z,8.70
2018-10-19T02:58:48.589Z,8.70
2018-10-19T03:01:17.639Z,8.70
2018-10-19T03:03:46.463Z,8.60
2018-10-19T03:06:15.536Z,8.50
2018-10-19T03:08:44.294Z,8.40
2018-10-19T03:11:12.702Z,8.40
2018-10-19T03:13:41.570Z,8.40
2018-10-19T03:16:10.275Z,8.50
2018-10-19T03:18:39.233Z,8.50
2018-10-19T03:21:08.091Z,8.50
2018-10-19T03:23:36.785Z,8.40
2018-10-19T03:26:06.655Z,8.30
2018-10-19T03:28:35.265Z,8.30
2018-10-19T03:31:04.541Z,8.30
2018-10-19T03:33:33.264Z,8.40
2018-10-19T03:36:01.873Z,8.50
2018-10-19T03:38:30.711Z,8.50
2018-10-19T03:40:59.341Z,8.40
2018-10-19T03:43:28.190Z,8.40
2018-10-19T03:45:57.138Z,8.40
2018-10-19T03:48:25.949Z,8.30
2018-10-19T03:50:54.887Z,8.30
2018-10-19T03:53:23.399Z,8.30
2018-10-19T03:55:52.176Z,8.30
2018-10-19T03:58:20.951Z,8.20
2018-10-19T04:00:49.994Z,8.30
2018-10-19T04:03:18.868Z,8.10
2018-10-19T04:05:48.005Z,8.10
2018-10-19T04:08:16.768Z,8.00
2018-10-19T04:16:17.130Z,8.00
2018-10-19T04:18:45.764Z,7.90
2018-10-19T04:21:14.765Z,7.90
2018-10-19T04:23:43.509Z,7.90
2018-10-19T04:26:12.173Z,7.90
2018-10-19T04:28:41.204Z,7.90
2018-10-19T04:31:10.238Z,7.80
2018-10-19T04:33:39.207Z,7.80
2018-10-19T04:36:08.226Z,7.90
2018-10-19T04:38:37.583Z,7.90
2018-10-19T04:41:06.630Z,8.00
2018-10-19T04:43:35.389Z,8.00
2018-10-19T04:46:04.134Z,8.00
2018-10-19T04:48:33.184Z,8.00
2018-10-19T04:51:01.989Z,8.00
2018-10-19T04:53:30.642Z,8.00
2018-10-19T04:55:59.428Z,8.00
2018-10-19T04:58:28.417Z,8.00
2018-10-19T05:00:57.494Z,8.10
2018-10-19T05:03:26.136Z,8.10
2018-10-19T05:05:54.777Z,8.00
2018-10-19T05:08:24.363Z,8.00
2018-10-19T05:10:53.405Z,8.00
2018-10-19T05:13:22.497Z,8.00
2018-10-19T05:15:51.167Z,8.00
2018-10-19T05:18:20.168Z,8.00
2018-10-19T05:20:49.116Z,8.10
2018-10-19T05:23:17.831Z,8.10
2018-10-19T05:25:46.631Z,8.10
2018-10-19T05:28:15.406Z,8.30
2018-10-19T05:30:43.852Z,8.30
2018-10-19T05:33:12.479Z,8.30
2018-10-19T05:35:41.072Z,8.40
2018-10-19T05:38:10.033Z,8.40
2018-10-19T05:40:39.368Z,8.40
2018-10-19T05:43:08.696Z,8.30
2018-10-19T05:45:37.579Z,8.30
2018-10-19T05:48:06.622Z,8.40
2018-10-19T05:50:35.218Z,8.40
2018-10-19T05:53:03.815Z,8.40
2018-10-19T05:55:32.895Z,8.40
2018-10-19T05:58:01.806Z,8.40
2018-10-19T06:00:30.563Z,8.40
2018-10-19T06:02:59.964Z,8.30
2018-10-19T06:05:28.890Z,8.20
2018-10-19T06:07:57.748Z,8.20
2018-10-19T06:10:26.453Z,8.30
2018-10-19T06:12:55.203Z,8.30
2018-10-19T06:15:26.994Z,8.30
2018-10-19T06:17:55.803Z,8.30
2018-10-19T06:20:25.144Z,8.30
2018-10-19T06:22:54.935Z,8.30
2018-10-19T06:25:24.979Z,8.30
2018-10-19T06:27:53.894Z,8.40
2018-10-19T06:30:23.343Z,8.50
2018-10-19T06:32:53.441Z,8.60
2018-10-19T06:35:22.732Z,8.60
2018-10-19T06:37:52.065Z,8.60
2018-10-19T06:40:21.164Z,8.60
2018-10-19T06:42:50.986Z,8.60
2018-10-19T06:45:20.118Z,8.60
2018-10-19T06:47:49.650Z,8.70
2018-10-19T06:50:19.322Z,8.70
2018-10-19T06:52:48.407Z,8.80
2018-10-19T06:55:19.033Z,8.80
2018-10-19T06:57:48.224Z,8.80
2018-10-19T07:00:17.648Z,8.80
2018-10-19T07:02:46.437Z,8.70
2018-10-19T07:05:15.744Z,8.80
2018-10-19T07:07:45.117Z,8.90
2018-10-19T07:10:14.166Z,8.90
2018-10-19T07:12:42.869Z,8.90
2018-10-19T07:15:11.972Z,9.00
2018-10-19T07:17:40.572Z,9.00
2018-10-19T07:20:10.816Z,9.00
2018-10-19T07:22:41.079Z,9.00
2018-10-19T07:25:13.215Z,9.10
2018-10-19T07:27:43.062Z,9.10
2018-10-19T07:30:12.038Z,9.10
2018-10-19T07:32:40.973Z,9.20
2018-10-19T07:35:10.307Z,9.20
2018-10-19T07:37:39.615Z,9.20
2018-10-19T07:40:15.998Z,9.30
2018-10-19T07:42:48.949Z,9.30
2018-10-19T07:45:18.075Z,9.40
2018-10-19T07:47:47.254Z,9.40
2018-10-19T07:50:16.363Z,9.40
2018-10-19T07:52:45.505Z,9.50
2018-10-19T07:55:14.728Z,9.50
2018-10-19T07:57:43.717Z,9.50
2018-10-19T08:00:16.284Z,9.60
2018-10-19T08:02:45.521Z,9.70
2018-10-19T08:05:15.126Z,9.70
2018-10-19T08:07:44.699Z,9.80
2018-10-19T08:10:14.088Z,9.80
2018-10-19T08:17:43.664Z,9.70
2018-10-19T08:20:13.244Z,9.80
2018-10-19T08:22:42.233Z,9.80
2018-10-19T08:25:13.873Z,10.00
2018-10-19T08:27:42.912Z,10.00
2018-10-19T08:30:13.245Z,10.00
2018-10-19T08:32:42.375Z,10.10
2018-10-19T08:35:11.884Z,10.20
2018-10-19T08:37:41.052Z,10.30
2018-10-19T08:40:11.395Z,10.30
2018-10-19T08:42:41.625Z,10.40
2018-10-19T08:45:11.249Z,10.50
2018-10-19T08:47:40.161Z,10.40
2018-10-19T08:50:09.880Z,10.60
2018-10-19T08:52:42.568Z,10.70
2018-10-19T08:55:11.848Z,10.90
2018-10-19T08:57:41.028Z,11.00
2018-10-19T09:00:11.327Z,11.00
2018-10-19T09:02:40.144Z,11.10
2018-10-19T09:06:42.798Z,10.90
2018-10-19T09:09:13.243Z,10.80
2018-10-19T09:11:42.432Z,11.10
2018-10-19T09:14:24.589Z,11.20
2018-10-19T09:16:53.689Z,11.10
2018-10-19T09:19:22.981Z,11.30
2018-10-19T09:21:51.849Z,11.40
2018-10-19T09:24:20.958Z,11.50
2018-10-19T09:26:49.717Z,11.80
2018-10-19T09:29:18.983Z,11.90
2018-10-19T09:31:47.847Z,11.90
2018-10-19T09:34:16.977Z,11.80
2018-10-19T09:36:46.050Z,11.90
2018-10-19T09:39:14.978Z,12.10
2018-10-19T09:41:43.852Z,12.00
2018-10-19T09:44:12.592Z,12.00
2018-10-19T09:46:42.047Z,12.10
2018-10-19T09:49:13.100Z,11.90
2018-10-19T09:51:42.340Z,12.00
2018-10-19T09:54:12.247Z,11.90
2018-10-19T09:56:41.291Z,12.00
2018-10-19T09:59:10.133Z,12.00
2018-10-19T10:01:40.997Z,12.20
2018-10-19T10:04:09.977Z,12.30
2018-10-19T10:06:39.007Z,12.40
2018-10-19T10:09:10.900Z,12.50
2018-10-19T10:11:40.337Z,12.60
2018-10-19T10:14:22.062Z,12.80
2018-10-19T10:16:54.113Z,12.70
2018-10-19T10:19:24.902Z,12.90
2018-10-19T10:21:54.270Z,13.00
2018-10-19T10:24:23.493Z,13.00
2018-10-19T10:26:53.271Z,12.90
2018-10-19T10:29:22.943Z,12.90
2018-10-19T10:47:16.720Z,13.10
2018-10-19T10:49:49.202Z,13.50
2018-10-19T10:52:19.436Z,13.70
2018-10-19T10:54:49.790Z,13.80
2018-10-19T10:57:22.489Z,13.90
2018-10-19T10:59:57.495Z,14.00
2018-10-19T11:02:28.126Z,14.20
2018-10-19T11:04:57.148Z,14.20
2018-10-19T11:07:26.584Z,14.30
2018-10-19T11:09:55.938Z,14.30
2018-10-19T11:12:26.228Z,14.30
2018-10-19T11:14:55.510Z,14.40
2018-10-19T11:17:24.650Z,14.40
2018-10-19T11:19:54.687Z,14.50
2018-10-19T11:22:28.086Z,14.60
2018-10-19T11:24:57.442Z,14.70
2018-10-19T11:27:27.113Z,14.70
2018-10-19T11:30:00.134Z,14.60
2018-10-19T11:32:29.428Z,14.60
2018-10-19T11:34:58.535Z,14.80
2018-10-19T11:37:27.941Z,14.80
2018-10-19T11:40:17.550Z,14.70
2018-10-19T11:42:46.816Z,14.80
2018-10-19T11:45:16.216Z,14.90
2018-10-19T11:47:47.139Z,14.90
2018-10-19T11:50:17.607Z,14.90
2018-10-19T11:52:46.692Z,14.90
2018-10-19T11:55:16.001Z,14.90
2018-10-19T11:57:46.843Z,15.00
2018-10-19T12:00:20.034Z,15.00
2018-10-19T12:02:49.556Z,14.90
2018-10-19T12:05:19.351Z,15.10
2018-10-19T12:07:48.515Z,15.20
2018-10-19T12:10:17.902Z,15.30
2018-10-19T12:12:47.214Z,15.30
2018-10-19T12:15:17.493Z,15.30
2018-10-19T12:17:47.694Z,15.30
2018-10-19T12:20:18.406Z,15.30
2018-10-19T12:22:47.414Z,15.30
2018-10-19T12:25:17.379Z,15.30
2018-10-19T12:27:48.125Z,15.30
2018-10-19T12:30:26.084Z,15.30
2018-10-19T12:32:56.349Z,15.30
2018-10-19T12:35:25.515Z,15.20
2018-10-19T12:37:56.868Z,15.20
2018-10-19T12:40:26.372Z,15.30
2018-10-19T12:42:56.205Z,15.40
2018-10-19T12:46:38.510Z,15.50
2018-10-19T12:49:08.434Z,15.70
2018-10-19T12:51:39.685Z,15.80
2018-10-19T12:54:08.776Z,15.60
2018-10-19T12:56:38.399Z,15.70
2018-10-19T12:59:07.729Z,15.60
2018-10-19T13:01:36.738Z,15.60
2018-10-19T13:04:06.035Z,15.60
2018-10-19T13:06:39.324Z,15.70
2018-10-19T13:09:13.260Z,15.80
2018-10-19T13:11:48.005Z,15.90
2018-10-19T13:14:16.750Z,16.00
2018-10-19T13:16:45.874Z,16.00
2018-10-19T13:19:17.130Z,16.00
2018-10-19T13:21:46.799Z,15.90
2018-10-19T13:24:17.017Z,15.90
2018-10-19T13:26:46.486Z,15.80
2018-10-19T13:29:16.176Z,15.90
2018-10-19T13:31:49.250Z,16.00
2018-10-19T13:34:18.175Z,16.10
2018-10-19T13:36:49.075Z,16.20
2018-10-19T13:39:18.116Z,16.30
2018-10-19T13:41:49.024Z,16.30
2018-10-19T13:44:18.174Z,16.30
2018-10-19T13:46:47.626Z,16.30
2018-10-19T13:49:17.957Z,16.40
2018-10-19T13:51:47.118Z,16.40
2018-10-19T13:54:16.978Z,16.40
2018-10-19T13:56:46.700Z,16.40
2018-10-19T13:59:15.633Z,16.40
2018-10-19T14:01:45.755Z,16.30
2018-10-19T14:04:14.708Z,16.30
2018-10-19T14:06:44.040Z,16.30
2018-10-19T14:09:13.334Z,16.30
2018-10-19T14:11:42.377Z,16.30
2018-10-19T14:14:11.838Z,16.20
2018-10-19T14:16:40.686Z,16.30
2018-10-19T14:19:10.250Z,16.20
2018-10-19T14:21:39.399Z,16.20
2018-10-19T14:24:09.013Z,16.20
2018-10-19T14:26:38.924Z,16.20
2018-10-19T14:29:08.404Z,16.10
2018-10-19T14:31:37.444Z,16.00
2018-10-19T14:34:06.632Z,16.00
2018-10-19T14:36:42.350Z,15.90
2018-10-19T14:39:11.768Z,15.90
2018-10-19T14:41:44.519Z,15.90
2018-10-19T14:44:15.610Z,15.90
2018-10-19T14:46:48.260Z,15.80
2018-10-19T14:49:17.617Z,15.80
2018-10-19T14:51:46.617Z,15.80
2018-10-19T14:54:21.772Z,15.70
2018-10-19T14:56:50.842Z,15.70
2018-10-19T14:59:21.019Z,15.70
2018-10-19T15:01:50.826Z,15.70
2018-10-19T15:04:22.866Z,15.60
2018-10-19T15:06:52.119Z,15.60
2018-10-19T15:09:25.007Z,15.50
2018-10-19T15:11:54.728Z,15.40
2018-10-19T15:14:24.189Z,15.40
2018-10-19T15:16:58.726Z,15.40
2018-10-19T15:19:28.797Z,15.30
2018-10-19T15:22:04.312Z,15.30
2018-10-19T15:27:30.908Z,15.20
2018-10-19T15:30:00.757Z,15.10
2018-10-19T15:32:30.370Z,15.00
2018-10-19T15:35:03.874Z,15.00
2018-10-19T15:37:33.994Z,14.90
2018-10-19T15:40:04.376Z,14.90
2018-10-19T15:42:41.173Z,14.80
2018-10-19T15:45:12.793Z,14.80
2018-10-19T15:47:47.197Z,14.80
2018-10-19T15:50:22.529Z,14.70
2018-10-19T15:52:54.229Z,14.70
2018-10-19T15:55:26.668Z,14.60
2018-10-19T15:58:00.645Z,14.50
2018-10-19T16:00:29.821Z,14.40
2018-10-19T16:03:00.344Z,14.30
2018-10-19T16:05:32.442Z,14.20
2018-10-19T16:08:01.703Z,14.20
2018-10-19T16:10:31.423Z,14.10
2018-10-19T16:13:00.789Z,14.00
2018-10-19T16:15:30.928Z,14.00
2018-10-19T16:18:00.070Z,13.90
2018-10-19T16:20:29.182Z,13.80
2018-10-19T16:22:59.633Z,13.70
2018-10-19T16:25:28.680Z,13.60
2018-10-19T16:27:57.612Z,13.50
2018-10-19T16:30:27.689Z,13.40
2018-10-19T16:32:57.348Z,13.30
2018-10-19T16:35:26.720Z,13.20
2018-10-19T16:37:55.830Z,13.10
2018-10-19T16:40:25.433Z,13.00
2018-10-19T16:42:54.826Z,12.90
2018-10-19T16:45:23.837Z,12.90
2018-10-19T16:47:56.891Z,12.80
2018-10-19T16:50:26.609Z,12.70
2018-10-19T16:52:56.051Z,12.70
2018-10-19T16:55:25.201Z,12.60
2018-10-19T16:57:54.188Z,12.50
2018-10-19T17:00:23.507Z,12.50
2018-10-19T17:02:52.685Z,12.40
2018-10-19T17:05:26.923Z,12.30
2018-10-19T17:08:08.489Z,12.30
2018-10-19T17:10:37.759Z,12.20
2018-10-19T17:28:34.055Z,12.20
2018-10-19T17:31:06.474Z,11.80
2018-10-19T17:33:35.888Z,11.80
2018-10-19T17:36:05.075Z,11.80
2018-10-19T17:38:34.051Z,11.70
2018-10-19T17:41:06.251Z,11.60
2018-10-19T17:43:35.462Z,11.60
2018-10-19T17:46:05.258Z,11.60
2018-10-19T17:48:34.926Z,11.50
2018-10-19T17:51:09.308Z,11.40
2018-10-19T17:53:39.291Z,11.40
2018-10-19T17:56:08.679Z,11.30
2018-10-19T17:58:38.967Z,11.30
2018-10-19T18:01:08.450Z,11.30
2018-10-19T18:03:38.924Z,11.20
2018-10-19T18:06:08.402Z,11.20
2018-10-19T18:08:37.644Z,11.20
2018-10-19T18:11:07.437Z,11.10
2018-10-19T18:13:38.316Z,11.20
2018-10-19T18:16:08.206Z,11.10
2018-10-19T18:18:37.903Z,11.10
2018-10-19T18:21:07.116Z,11.10
2018-10-19T18:23:36.024Z,11.00
2018-10-19T18:26:05.331Z,11.00
2018-10-19T18:28:35.328Z,11.00
2018-10-19T18:31:04.693Z,11.00
2018-10-19T18:33:33.795Z,10.90
2018-10-19T18:36:02.976Z,10.90
2018-10-19T18:38:33.443Z,10.80
2018-10-19T18:41:02.515Z,10.80
2018-10-19T18:43:31.840Z,10.80
2018-10-19T18:46:01.628Z,10.80
2018-10-19T18:48:30.781Z,10.80
2018-10-19T18:51:00.063Z,10.80
2018-10-19T18:53:29.101Z,10.80
2018-10-19T18:55:58.297Z,10.70
2018-10-19T18:58:28.060Z,10.70
2018-10-19T19:00:56.951Z,10.70
2018-10-19T19:03:26.197Z,10.60
2018-10-19T19:05:56.688Z,10.60
2018-10-19T19:08:25.949Z,10.60
2018-10-19T19:10:55.664Z,10.40
2018-10-19T19:13:28.857Z,10.40
2018-10-19T19:15:58.158Z,10.50
2018-10-19T19:18:27.449Z,10.40
2018-10-19T19:20:57.246Z,10.40
2018-10-19T19:23:26.162Z,10.50
2018-10-19T19:26:00.802Z,10.40
2018-10-19T19:28:30.351Z,10.40
2018-10-19T19:30:59.330Z,10.40
2018-10-19T19:33:33.830Z,10.30
2018-10-19T19:36:03.116Z,10.20
2018-10-19T19:38:32.511Z,10.20
2018-10-19T19:41:13.358Z,10.20
2018-10-19T19:43:42.499Z,10.20
2018-10-19T19:46:12.081Z,10.20
2018-10-19T19:48:46.291Z,10.20
2018-10-19T19:51:15.061Z,10.10
2018-10-19T19:53:44.178Z,10.00
2018-10-19T19:56:13.410Z,10.00
2018-10-19T19:58:42.288Z,10.00
2018-10-19T20:01:11.393Z,10.00
2018-10-19T20:03:40.313Z,9.90
2018-10-19T20:06:09.318Z,9.80
2018-10-19T20:08:38.406Z,9.80
2018-10-19T20:11:08.202Z,9.80
2018-10-19T20:13:37.249Z,9.80
2018-10-19T20:16:06.024Z,9.70
2018-10-19T20:18:35.813Z,9.70
2018-10-19T20:21:05.257Z,9.70
2018-10-19T20:23:34.153Z,9.70
2018-10-19T20:26:03.156Z,9.60
2018-10-19T20:28:32.438Z,9.60
2018-10-19T20:31:01.619Z,9.60
2018-10-19T20:33:30.713Z,9.40
2018-10-19T20:36:00.015Z,9.50
2018-10-19T20:38:28.716Z,9.50
2018-10-19T20:40:57.670Z,9.50
2018-10-19T20:43:26.411Z,9.50
2018-10-19T20:45:55.502Z,9.50
2018-10-19T20:48:24.564Z,9.50
2018-10-19T20:50:53.791Z,9.40
2018-10-19T20:53:23.263Z,9.40
2018-10-19T20:55:52.378Z,9.40
2018-10-19T20:58:21.047Z,9.50
2018-10-19T21:00:50.121Z,9.50
2018-10-19T21:03:18.647Z,9.40
2018-10-19T21:05:47.864Z,9.40
2018-10-19T21:08:16.882Z,9.30
2018-10-19T21:10:45.841Z,9.20
2018-10-19T21:13:14.938Z,9.20
2018-10-19T21:15:44.142Z,9.20
2018-10-19T21:18:13.953Z,9.20
2018-10-19T21:20:42.922Z,9.20
2018-10-19T21:23:12.145Z,9.20
2018-10-19T21:25:40.926Z,9.10
2018-10-19T21:28:09.835Z,9.20
2018-10-19T21:30:38.641Z,9.20
2018-10-19T21:33:07.593Z,9.20
2018-10-19T21:35:36.377Z,9.10
2018-10-19T21:38:05.849Z,9.10
2018-10-19T21:40:35.044Z,9.10
2018-10-19T21:43:04.108Z,9.10
2018-10-19T21:45:33.085Z,8.80
2018-10-19T21:48:01.901Z,8.70
2018-10-19T21:50:30.883Z,8.80
2018-10-19T21:52:59.943Z,8.90
2018-10-19T21:55:28.957Z,8.90
2018-10-19T21:57:57.592Z,9.00
2018-10-19T22:00:26.800Z,8.90
2018-10-19T22:02:56.065Z,8.90
2018-10-19T22:05:24.971Z,8.70
2018-10-19T22:07:53.967Z,8.60
2018-10-19T22:10:22.744Z,8.50
2018-10-19T22:12:51.762Z,8.50
2018-10-19T22:15:20.398Z,8.60
2018-10-19T22:17:49.664Z,8.70
2018-10-19T22:20:18.890Z,8.70
2018-10-19T22:22:47.867Z,8.80
2018-10-19T22:25:16.826Z,8.80
2018-10-19T22:27:45.793Z,8.70
2018-10-19T22:30:14.920Z,8.70
2018-10-19T22:32:43.975Z,8.60
2018-10-19T22:35:13.579Z,8.70
2018-10-19T22:37:42.754Z,8.60
2018-10-19T22:40:11.567Z,8.60
2018-10-19T22:42:40.425Z,8.60
2018-10-19T22:45:09.798Z,8.50
2018-10-19T22:47:39.174Z,8.50
2018-10-19T22:50:08.508Z,8.50
2018-10-19T22:52:37.964Z,8.50
2018-10-19T22:55:06.957Z,8.60
2018-10-19T22:57:36.006Z,8.50
2018-10-19T23:00:05.021Z,8.40
2018-10-19T23:02:34.116Z,8.40
2018-10-19T23:05:09.451Z,8.40
2018-10-19T23:07:38.383Z,8.30
2018-10-19T23:10:10.655Z,8.30
2018-10-19T23:12:39.422Z,8.30
2018-10-19T23:15:08.739Z,8.30
2018-10-19T23:17:37.880Z,8.30
2018-10-19T23:20:07.342Z,8.20
2018-10-19T23:22:36.006Z,8.20
2018-10-19T23:25:04.974Z,8.20
2018-10-19T23:27:33.709Z,8.20
2018-10-19T23:30:02.286Z,8.10
2018-10-19T23:32:31.046Z,8.00
2018-10-19T23:34:59.646Z,8.00
2018-10-19T23:37:28.756Z,8.10
2018-10-19T23:39:57.582Z,8.20
2018-10-19T23:42:26.484Z,8.10
2018-10-19T23:44:55.436Z,8.10
2018-10-19T23:47:24.822Z,8.10
2018-10-19T23:49:54.332Z,8.10
2018-10-19T23:52:24.133Z,8.10
2018-10-19T23:54:53.033Z,8.10
2018-10-19T23:57:21.982Z,7.90
2018-10-19T23:59:50.623Z,7.80
